createdAt,value
2022-12-25T00:01:54.374Z,99454.81
2022-12-25T00:04:22.003Z,99475.56
2022-12-25T00:06:49.886Z,99484.25
2022-12-25T00:09:17.426Z,99485.13
2022-12-25T00:11:47.238Z,99495.53
2022-12-25T00:14:14.652Z,99497.25
2022-12-25T00:16:42.226Z,99505.06
2022-12-25T00:19:10.026Z,99507.66
2022-12-25T00:21:37.558Z,99465.38
2022-12-25T00:24:04.961Z,99517.22
2022-12-25T00:26:32.661Z,99474.03
2022-12-25T00:29:00.211Z,99466.25
2022-12-25T00:31:27.924Z,99522.47
2022-12-25T00:33:55.846Z,99532.91
2022-12-25T00:36:23.901Z,99528.59
2022-12-25T00:38:51.615Z,99539.00
2022-12-25T00:41:40.614Z,99482.81
2022-12-25T00:44:10.948Z,99529.50
2022-12-25T00:46:38.501Z,99501.84
2022-12-25T00:49:06.572Z,99546.84
2022-12-25T00:51:33.980Z,99546.84
2022-12-25T00:54:01.345Z,99507.09
2022-12-25T00:56:29.269Z,99559.00
2022-12-25T00:58:56.748Z,99561.63
2022-12-25T01:01:24.542Z,99552.97
2022-12-25T01:03:52.353Z,99562.50
2022-12-25T01:06:19.653Z,99512.31
2022-12-25T01:09:05.603Z,99572.91
2022-12-25T01:11:33.240Z,99583.34
2022-12-25T01:14:00.499Z,99580.75
2022-12-25T01:16:28.971Z,99589.47
2022-12-25T01:18:58.761Z,99585.09
2022-12-25T01:21:26.537Z,99591.16
2022-12-25T01:23:54.856Z,99592.06
2022-12-25T01:26:24.051Z,99577.34
2022-12-25T01:28:51.991Z,99590.31
2022-12-25T01:31:22.440Z,99590.31
2022-12-25T01:33:51.208Z,99597.25
2022-12-25T01:36:24.931Z,99592.06
2022-12-25T01:38:53.796Z,99599.84
2022-12-25T01:41:23.345Z,99608.50
2022-12-25T01:44:04.756Z,99608.50
2022-12-25T01:46:32.738Z,99605.06
2022-12-25T01:49:05.807Z,99539.28
2022-12-25T01:51:41.139Z,99579.97
2022-12-25T01:54:32.114Z,99622.41
2022-12-25T01:57:03.034Z,99637.16
2022-12-25T01:59:30.749Z,99637.16
2022-12-25T02:02:00.668Z,99582.56
2022-12-25T02:04:42.450Z,99613.72
2022-12-25T02:07:21.830Z,99640.59
2022-12-25T02:09:49.963Z,99644.06
2022-12-25T02:12:29.621Z,99639.75
2022-12-25T02:15:05.359Z,99651.84
2022-12-25T02:17:41.690Z,99655.31
2022-12-25T02:20:30.432Z,99653.59
2022-12-25T02:23:13.110Z,99661.41
2022-12-25T02:26:01.755Z,99666.59
2022-12-25T02:28:45.759Z,99670.06
2022-12-25T02:31:18.555Z,99682.16
2022-12-25T02:34:04.976Z,99683.00
2022-12-25T02:36:44.387Z,99677.84
2022-12-25T02:39:41.589Z,99682.13
2022-12-25T02:42:17.829Z,99691.66
2022-12-25T02:45:06.803Z,99607.59
2022-12-25T02:47:56.416Z,99695.13
2022-12-25T02:50:48.667Z,99698.56
2022-12-25T02:53:35.538Z,99711.53
2022-12-25T02:56:41.378Z,99709.78
2022-12-25T02:59:28.040Z,99636.94
2022-12-25T03:02:14.533Z,99716.66
2022-12-25T03:05:02.415Z,99729.63
2022-12-25T03:07:32.486Z,99731.38
2022-12-25T03:10:24.444Z,99731.34
2022-12-25T03:12:59.427Z,99726.13
2022-12-25T03:15:45.529Z,99727.88
2022-12-25T03:18:17.557Z,99736.50
2022-12-25T03:21:04.008Z,99727.84
2022-12-25T03:23:53.154Z,99741.59
2022-12-25T03:26:39.086Z,99741.59
2022-12-25T03:29:06.579Z,99697.34
2022-12-25T03:31:46.752Z,99752.91
2022-12-25T03:34:54.932Z,99754.59
2022-12-25T03:38:11.363Z,99752.00
2022-12-25T03:41:09.771Z,99771.91
2022-12-25T03:44:14.725Z,99767.56
2022-12-25T03:47:07.495Z,99774.41
2022-12-25T03:50:19.608Z,99773.56
2022-12-25T03:53:06.805Z,99768.44
2022-12-25T03:55:54.038Z,99779.69
2022-12-25T03:58:42.849Z,99777.13
2022-12-25T04:01:29.369Z,99769.34
2022-12-25T04:04:15.456Z,99779.69
2022-12-25T04:07:01.601Z,99782.22
2022-12-25T04:09:47.229Z,99724.03
2022-12-25T04:12:33.358Z,99785.69
2022-12-25T04:15:19.803Z,99718.78
2022-12-25T04:18:05.824Z,99809.06
2022-12-25T04:20:51.924Z,99803.84
2022-12-25T04:23:37.631Z,99810.75
2022-12-25T04:26:23.592Z,99773.38
2022-12-25T04:29:09.678Z,99811.56
2022-12-25T04:31:55.916Z,99821.03
2022-12-25T04:34:41.676Z,99810.63
2022-12-25T04:37:09.388Z,99818.41
2022-12-25T04:39:36.991Z,99800.16
2022-12-25T04:42:04.307Z,99822.75
2022-12-25T04:44:31.916Z,99818.41
2022-12-25T04:46:59.643Z,99728.88
2022-12-25T04:49:27.334Z,99833.97
2022-12-25T04:51:54.771Z,99833.09
2022-12-25T04:54:22.196Z,99805.25
2022-12-25T04:56:49.776Z,99846.97
2022-12-25T04:59:17.317Z,99849.50
2022-12-25T05:01:44.964Z,99857.31
2022-12-25T05:04:12.475Z,99867.66
2022-12-25T05:06:40.770Z,99855.56
2022-12-25T05:09:08.149Z,99873.69
2022-12-25T05:11:35.540Z,99808.56
2022-12-25T05:14:02.993Z,99879.78
2022-12-25T05:16:30.896Z,99871.09
2022-12-25T05:18:58.644Z,99885.03
2022-12-25T05:21:28.342Z,99814.53
2022-12-25T05:23:55.783Z,99799.72
2022-12-25T05:26:25.960Z,99864.81
2022-12-25T05:28:54.812Z,99896.06
2022-12-25T05:31:22.524Z,99909.16
2022-12-25T05:33:52.034Z,99905.63
2022-12-25T05:36:20.372Z,99909.09
2022-12-25T05:38:48.087Z,99800.28
2022-12-25T05:41:15.631Z,99933.34
2022-12-25T05:43:43.286Z,99935.94
2022-12-25T05:46:12.777Z,99945.47
2022-12-25T05:48:40.285Z,99894.91
2022-12-25T05:51:10.752Z,99942.75
2022-12-25T05:53:39.412Z,99941.03
2022-12-25T05:56:08.115Z,99944.50
2022-12-25T05:58:38.443Z,99895.75
2022-12-25T06:01:12.227Z,99856.59
2022-12-25T06:03:40.049Z,99963.56
2022-12-25T06:06:08.154Z,99960.91
2022-12-25T06:08:35.708Z,99966.13
2022-12-25T06:11:05.147Z,99957.56
2022-12-25T06:13:33.945Z,99964.56
2022-12-25T06:16:05.018Z,99858.34
2022-12-25T06:18:34.884Z,99973.97
2022-12-25T06:21:06.772Z,99977.44
2022-12-25T06:23:34.133Z,99975.75
2022-12-25T06:26:07.645Z,99920.13
2022-12-25T06:28:35.734Z,99981.03
2022-12-25T06:31:11.320Z,99929.59
2022-12-25T06:33:39.038Z,99980.97
2022-12-25T06:36:09.274Z,99974.00
2022-12-25T06:38:37.009Z,99978.38
2022-12-25T06:41:14.185Z,99950.41
2022-12-25T06:43:42.016Z,100000.00
2022-12-25T06:46:12.235Z,99999.03
2022-12-25T06:48:41.378Z,100002.41
2022-12-25T06:51:09.062Z,99995.34
2022-12-25T06:53:40.580Z,100006.63
2022-12-25T06:56:16.931Z,100009.19
2022-12-25T06:58:49.759Z,99969.19
2022-12-25T07:01:38.584Z,100000.56
2022-12-25T07:04:11.812Z,100005.72
2022-12-25T07:06:39.263Z,100019.63
2022-12-25T07:09:06.806Z,100022.34
2022-12-25T07:11:34.197Z,100003.25
2022-12-25T07:14:01.420Z,99973.72
2022-12-25T07:16:29.084Z,100021.72
2022-12-25T07:18:56.761Z,100009.75
2022-12-25T07:21:24.163Z,100015.84
2022-12-25T07:23:51.831Z,100015.78
2022-12-25T07:26:19.701Z,100009.75
2022-12-25T07:28:47.336Z,100011.44
2022-12-25T07:31:17.250Z,100018.34
2022-12-25T07:33:45.109Z,100038.31
2022-12-25T07:36:13.859Z,100038.28
2022-12-25T07:38:44.968Z,100036.50
2022-12-25T07:41:13.307Z,100048.66
2022-12-25T07:43:41.700Z,100050.38
2022-12-25T07:46:10.075Z,100053.00
2022-12-25T07:48:37.898Z,100066.75
2022-12-25T07:51:07.758Z,100065.84
2022-12-25T07:53:37.669Z,100072.75
2022-12-25T07:56:14.988Z,100084.78
2022-12-25T07:58:43.174Z,100079.53
2022-12-25T08:01:18.384Z,100077.81
2022-12-25T08:03:54.054Z,100034.25
2022-12-25T08:06:23.450Z,100074.50
2022-12-25T08:08:51.188Z,100085.84
2022-12-25T08:11:18.645Z,100099.69
2022-12-25T08:13:46.216Z,100098.75
2022-12-25T08:16:13.849Z,100097.69
2022-12-25T08:18:41.424Z,100109.69
2022-12-25T08:21:14.303Z,100102.75
2022-12-25T08:23:44.295Z,100108.91
2022-12-25T08:26:14.957Z,100101.81
2022-12-25T08:28:42.633Z,100096.53
2022-12-25T08:31:21.731Z,100115.47
2022-12-25T08:33:51.626Z,100116.44
2022-12-25T08:36:19.674Z,100122.66
2022-12-25T08:38:47.796Z,100117.53
2022-12-25T08:41:15.922Z,100125.38
2022-12-25T08:43:43.842Z,100135.78
2022-12-25T08:46:12.242Z,100028.69
2022-12-25T08:48:43.194Z,100118.28
2022-12-25T08:51:15.034Z,100131.28
2022-12-25T08:53:43.697Z,100133.81
2022-12-25T08:56:12.058Z,100136.34
2022-12-25T08:58:40.275Z,100128.63
2022-12-25T09:01:08.467Z,100133.03
2022-12-25T09:03:36.173Z,100124.44
2022-12-25T09:06:07.323Z,100127.06
2022-12-25T09:08:36.288Z,100142.50
2022-12-25T09:11:06.778Z,100137.31
2022-12-25T09:13:34.750Z,100140.03
2022-12-25T09:16:06.898Z,100143.53
2022-12-25T09:18:34.187Z,100149.38
2022-12-25T09:21:03.349Z,100152.75
2022-12-25T09:23:31.379Z,100157.91
2022-12-25T09:26:03.315Z,100062.03
2022-12-25T09:28:31.315Z,100172.81
2022-12-25T09:30:59.429Z,100166.84
2022-12-25T09:33:26.863Z,100168.56
2022-12-25T09:36:08.680Z,100171.16
2022-12-25T09:38:36.323Z,100165.91
2022-12-25T09:41:21.725Z,100177.00
2022-12-25T09:43:57.558Z,100181.22
2022-12-25T09:46:36.391Z,100136.72
2022-12-25T09:49:20.608Z,100176.94
2022-12-25T09:51:53.737Z,100179.63
2022-12-25T09:54:46.783Z,100129.84
2022-12-25T09:57:15.426Z,100173.59
2022-12-25T09:59:44.856Z,100096.72
2022-12-25T10:02:55.255Z,100180.50
2022-12-25T10:05:44.189Z,100187.34
2022-12-25T10:08:26.714Z,100195.03
2022-12-25T10:11:05.486Z,100196.03
2022-12-25T10:13:57.666Z,100199.56
2022-12-25T10:16:46.200Z,100194.31
2022-12-25T10:19:25.686Z,100202.25
2022-12-25T10:21:58.341Z,100212.53
2022-12-25T10:24:33.757Z,100162.03
2022-12-25T10:27:05.240Z,100224.75
2022-12-25T10:29:55.068Z,100222.00
2022-12-25T10:32:22.695Z,100200.25
2022-12-25T10:34:51.004Z,100217.59
2022-12-25T10:37:18.988Z,100216.91
2022-12-25T10:39:47.205Z,100213.47
2022-12-25T10:42:33.650Z,100212.53
2022-12-25T10:45:06.622Z,100222.09
2022-12-25T10:47:42.881Z,100214.31
2022-12-25T10:50:12.438Z,100218.44
2022-12-25T10:53:10.184Z,100214.94
2022-12-25T10:55:37.699Z,100186.19
2022-12-25T10:58:06.275Z,100174.03
2022-12-25T11:00:34.055Z,100226.41
2022-12-25T11:03:01.733Z,100220.31
2022-12-25T11:05:35.060Z,100224.69
2022-12-25T11:08:03.459Z,100229.97
2022-12-25T11:10:37.763Z,100223.94
2022-12-25T11:13:25.299Z,100232.50
2022-12-25T11:16:03.247Z,100172.47
2022-12-25T11:18:51.010Z,100236.00
2022-12-25T11:21:32.767Z,100227.28
2022-12-25T11:24:06.310Z,100236.84
2022-12-25T11:26:53.821Z,100222.69
2022-12-25T11:29:30.333Z,100183.41
2022-12-25T11:32:00.104Z,100237.53
2022-12-25T11:34:32.706Z,100240.16
2022-12-25T11:37:03.270Z,100245.34
2022-12-25T11:39:34.727Z,100245.44
2022-12-25T11:42:29.540Z,100247.13
2022-12-25T11:45:09.092Z,100249.72
2022-12-25T11:47:45.390Z,100232.22
2022-12-25T11:50:34.401Z,100248.75
2022-12-25T11:53:19.614Z,100239.91
2022-12-25T11:55:54.967Z,100258.34
2022-12-25T11:58:28.952Z,100259.19
2022-12-25T12:00:58.974Z,100249.59
2022-12-25T12:03:31.874Z,100267.78
2022-12-25T12:06:05.852Z,100270.34
2022-12-25T12:08:34.939Z,100168.22
2022-12-25T12:11:18.839Z,100277.16
2022-12-25T12:14:25.097Z,100210.78
2022-12-25T12:16:52.545Z,100279.53
2022-12-25T12:19:30.076Z,100279.59
2022-12-25T12:22:04.059Z,100286.59
2022-12-25T12:24:38.430Z,100299.59
2022-12-25T12:27:23.670Z,100293.56
2022-12-25T12:29:56.029Z,100290.91
2022-12-25T12:32:44.820Z,100296.00
2022-12-25T12:35:18.508Z,100301.25
2022-12-25T12:37:55.536Z,100297.69
2022-12-25T12:40:32.085Z,100298.41
2022-12-25T12:43:00.432Z,100306.09
2022-12-25T12:45:32.307Z,100306.94
2022-12-25T12:48:00.033Z,100301.81
2022-12-25T12:50:41.422Z,100307.94
2022-12-25T12:53:24.273Z,100305.19
2022-12-25T12:55:52.976Z,100303.53
2022-12-25T12:58:36.028Z,100309.59
2022-12-25T13:01:14.064Z,100306.19
2022-12-25T13:03:51.127Z,100309.75
2022-12-25T13:06:24.617Z,100306.19
2022-12-25T13:09:11.935Z,100316.47
2022-12-25T13:11:42.065Z,100318.19
2022-12-25T13:14:21.302Z,100328.47
2022-12-25T13:16:51.921Z,100332.81
2022-12-25T13:19:26.033Z,100212.28
2022-12-25T13:21:59.015Z,100337.00
2022-12-25T13:24:32.151Z,100340.38
2022-12-25T13:27:00.039Z,100349.84
2022-12-25T13:29:31.519Z,100348.22
2022-12-25T13:32:01.271Z,100347.47
2022-12-25T13:34:41.641Z,100349.94
2022-12-25T13:37:18.315Z,100356.75
2022-12-25T13:39:56.418Z,100335.75
2022-12-25T13:42:31.128Z,100232.63
2022-12-25T13:45:18.617Z,100352.22
2022-12-25T13:47:53.080Z,100356.53
2022-12-25T13:50:27.261Z,100361.25
2022-12-25T13:52:56.492Z,100358.81
2022-12-25T13:55:30.641Z,100357.03
2022-12-25T13:58:00.308Z,100375.97
2022-12-25T14:00:39.875Z,100371.44
2022-12-25T14:03:14.537Z,100367.16
2022-12-25T14:05:43.605Z,100373.16
2022-12-25T14:08:17.940Z,100367.00
2022-12-25T14:10:51.200Z,100357.47
2022-12-25T14:13:22.850Z,100362.75
2022-12-25T14:15:51.765Z,100378.34
2022-12-25T14:18:20.931Z,100370.56
2022-12-25T14:21:11.866Z,100373.06
2022-12-25T14:23:46.579Z,100369.75
2022-12-25T14:26:26.394Z,100363.78
2022-12-25T14:29:16.828Z,100374.28
2022-12-25T14:31:47.217Z,100381.22
2022-12-25T14:34:24.895Z,100396.84
2022-12-25T14:36:53.799Z,100393.59
2022-12-25T14:39:30.349Z,100397.16
2022-12-25T14:41:58.127Z,100403.81
2022-12-25T14:44:58.157Z,100397.13
2022-12-25T14:47:26.779Z,100399.16
2022-12-25T14:49:54.896Z,100403.59
2022-12-25T14:52:44.770Z,100410.50
2022-12-25T14:55:25.407Z,100409.53
2022-12-25T14:57:57.149Z,100402.72
2022-12-25T15:00:31.953Z,100346.81
2022-12-25T15:03:00.570Z,100400.09
2022-12-25T15:05:39.726Z,100400.84
2022-12-25T15:08:12.705Z,100401.72
2022-12-25T15:13:30.299Z,100404.19
2022-12-25T15:16:13.802Z,100405.72
2022-12-25T15:18:44.612Z,100402.31
2022-12-25T15:21:25.894Z,100412.56
2022-12-25T15:23:56.244Z,100400.25
2022-12-25T15:26:24.496Z,100408.91
2022-12-25T15:28:52.329Z,100412.38
2022-12-25T15:31:31.785Z,100287.31
2022-12-25T15:34:01.892Z,100414.72
2022-12-25T15:36:29.821Z,100415.41
2022-12-25T15:38:58.062Z,100416.03
2022-12-25T15:41:54.547Z,100416.72
2022-12-25T15:44:22.849Z,100420.88
2022-12-25T15:47:11.860Z,100427.75
2022-12-25T15:49:39.766Z,100431.31
2022-12-25T15:52:10.826Z,100366.03
2022-12-25T15:54:38.546Z,100429.16
2022-12-25T15:57:14.492Z,100439.69
2022-12-25T15:59:42.149Z,100438.06
2022-12-25T16:02:21.207Z,100439.63
2022-12-25T16:04:51.214Z,100394.19
2022-12-25T16:07:21.164Z,100389.97
2022-12-25T16:09:48.962Z,100453.03
2022-12-25T16:12:17.297Z,100452.22
2022-12-25T16:14:44.758Z,100448.66
2022-12-25T16:17:14.433Z,100335.94
2022-12-25T16:19:44.734Z,100458.38
2022-12-25T16:22:20.603Z,100403.31
2022-12-25T16:24:49.729Z,100391.84
2022-12-25T16:27:17.426Z,100449.63
2022-12-25T16:29:45.018Z,100447.03
2022-12-25T16:32:14.344Z,100431.28
2022-12-25T16:34:42.422Z,100415.50
2022-12-25T16:37:09.949Z,100455.03
2022-12-25T16:39:37.835Z,100458.50
2022-12-25T16:42:05.216Z,100456.75
2022-12-25T16:44:36.881Z,100459.31
2022-12-25T16:47:04.272Z,100467.19
2022-12-25T16:49:31.732Z,100472.38
2022-12-25T16:51:59.276Z,100472.53
2022-12-25T16:54:26.755Z,100482.84
2022-12-25T16:56:54.163Z,100474.97
2022-12-25T16:59:21.459Z,100493.03
2022-12-25T17:01:49.052Z,100488.78
2022-12-25T17:04:16.937Z,100477.56
2022-12-25T17:06:44.428Z,100474.97
2022-12-25T17:09:12.094Z,100481.13
2022-12-25T17:11:39.772Z,100478.41
2022-12-25T17:14:07.685Z,100478.34
2022-12-25T17:16:37.173Z,100471.34
2022-12-25T17:19:16.003Z,100473.13
2022-12-25T17:21:43.479Z,100482.56
2022-12-25T17:24:11.227Z,100494.72
2022-12-25T17:26:41.060Z,100478.13
2022-12-25T17:29:09.111Z,100488.47
2022-12-25T17:31:37.626Z,100493.69
2022-12-25T17:34:06.602Z,100398.34
2022-12-25T17:36:34.390Z,100439.28
2022-12-25T17:39:06.397Z,100504.19
2022-12-25T17:41:34.080Z,100505.16
2022-12-25T17:44:01.793Z,100503.41
2022-12-25T17:46:30.649Z,100505.09
2022-12-25T17:48:59.917Z,100511.06
2022-12-25T17:51:29.244Z,100502.50
2022-12-25T17:53:59.100Z,100494.66
2022-12-25T17:56:26.780Z,100501.50
2022-12-25T17:58:59.357Z,100507.63
2022-12-25T18:01:28.522Z,100517.97
2022-12-25T18:03:56.246Z,100513.78
2022-12-25T18:06:25.950Z,100513.75
2022-12-25T18:08:54.830Z,100462.81
2022-12-25T18:11:29.294Z,100517.09
2022-12-25T18:13:58.615Z,100512.66
2022-12-25T18:16:27.424Z,100439.03
2022-12-25T18:18:55.172Z,100517.09
2022-12-25T18:21:23.913Z,100405.19
2022-12-25T18:23:51.413Z,100432.19
2022-12-25T18:26:20.732Z,100517.00
2022-12-25T18:28:49.979Z,100514.22
2022-12-25T18:31:20.765Z,100522.22
2022-12-25T18:33:48.933Z,100526.72
2022-12-25T18:36:20.738Z,100525.00
2022-12-25T18:38:52.657Z,100533.50
2022-12-25T18:41:20.998Z,100540.59
2022-12-25T18:43:52.917Z,100489.06
2022-12-25T18:46:25.503Z,100546.69
2022-12-25T18:48:57.212Z,100548.25
2022-12-25T18:51:31.342Z,100540.19
2022-12-25T18:54:04.264Z,100549.00
2022-12-25T18:56:31.813Z,100436.94
2022-12-25T18:59:00.750Z,100484.34
2022-12-25T19:01:28.962Z,100548.38
2022-12-25T19:04:04.038Z,100545.66
2022-12-25T19:06:33.826Z,100555.34
2022-12-25T19:09:05.717Z,100560.47
2022-12-25T19:11:33.036Z,100558.69
2022-12-25T19:14:00.658Z,100562.16
2022-12-25T19:16:28.272Z,100556.09
2022-12-25T19:18:56.814Z,100559.53
2022-12-25T19:21:24.183Z,100559.47
2022-12-25T19:23:53.692Z,100555.91
2022-12-25T19:26:21.893Z,100569.94
2022-12-25T19:28:49.886Z,100580.28
2022-12-25T19:31:17.399Z,100457.03
2022-12-25T19:33:45.054Z,100576.88
2022-12-25T19:36:16.060Z,100576.69
2022-12-25T19:38:44.083Z,100580.94
2022-12-25T19:41:17.155Z,100586.13
2022-12-25T19:43:47.795Z,100586.13
2022-12-25T19:46:18.870Z,100594.72
2022-12-25T19:48:46.791Z,100590.31
2022-12-25T19:51:20.075Z,100587.63
2022-12-25T19:53:47.586Z,100586.81
2022-12-25T19:56:15.887Z,100583.53
2022-12-25T19:58:45.634Z,100598.22
2022-12-25T20:01:16.301Z,100589.66
2022-12-25T20:03:47.602Z,100557.22
2022-12-25T20:06:23.369Z,100523.91
2022-12-25T20:08:53.206Z,100588.63
2022-12-25T20:11:21.766Z,100588.72
2022-12-25T20:13:49.714Z,100585.16
2022-12-25T20:16:17.768Z,100597.34
2022-12-25T20:18:45.205Z,100589.47
2022-12-25T20:21:14.983Z,100600.75
2022-12-25T20:23:44.277Z,100528.03
2022-12-25T20:26:13.038Z,100597.38
2022-12-25T20:28:42.464Z,100593.09
2022-12-25T20:31:17.099Z,100593.84
2022-12-25T20:33:45.145Z,100598.84
2022-12-25T20:36:13.354Z,100599.69
2022-12-25T20:38:41.567Z,100523.72
2022-12-25T20:41:29.046Z,100605.50
2022-12-25T20:43:57.897Z,100553.88
2022-12-25T20:46:26.254Z,100605.69
2022-12-25T20:48:54.446Z,100574.97
2022-12-25T20:51:24.856Z,100607.28
2022-12-25T20:53:52.909Z,100611.53
2022-12-25T20:56:22.863Z,100620.94
2022-12-25T20:58:57.669Z,100615.69
2022-12-25T21:01:25.430Z,100620.13
2022-12-25T21:03:53.760Z,100609.88
2022-12-25T21:06:21.728Z,100559.94
2022-12-25T21:08:49.926Z,100615.19
2022-12-25T21:11:18.328Z,100557.28
2022-12-25T21:13:47.103Z,100581.66
2022-12-25T21:16:18.604Z,100621.84
2022-12-25T21:18:47.264Z,100524.72
2022-12-25T21:21:15.953Z,100627.13
2022-12-25T21:23:43.486Z,100628.91
2022-12-25T21:26:19.467Z,100626.41
2022-12-25T21:28:51.451Z,100624.63
2022-12-25T21:31:20.038Z,100613.22
2022-12-25T21:33:53.728Z,100622.91
2022-12-25T21:36:29.990Z,100624.69
2022-12-25T21:39:06.998Z,100628.47
2022-12-25T21:41:37.136Z,100628.31
2022-12-25T21:44:05.506Z,100634.34
2022-12-25T21:46:33.146Z,100639.63
2022-12-25T21:49:02.490Z,100627.34
2022-12-25T21:51:50.911Z,100635.06
2022-12-25T21:54:20.915Z,100632.47
2022-12-25T21:56:50.076Z,100623.38
2022-12-25T21:59:20.502Z,100639.84
2022-12-25T22:01:49.933Z,100554.91
2022-12-25T22:04:20.676Z,100574.78
2022-12-25T22:07:07.392Z,100613.34
2022-12-25T22:09:34.777Z,100636.53
2022-12-25T22:12:21.048Z,100637.59
2022-12-25T22:14:54.700Z,100638.50
2022-12-25T22:17:43.493Z,100632.59
2022-12-25T22:20:14.859Z,100634.19
2022-12-25T22:22:42.634Z,100629.00
2022-12-25T22:25:11.199Z,100636.06
2022-12-25T22:27:40.481Z,100630.81
2022-12-25T22:30:10.821Z,100630.06
2022-12-25T22:32:38.530Z,100637.72
2022-12-25T22:35:06.566Z,100629.19
2022-12-25T22:37:36.000Z,100559.31
2022-12-25T22:40:05.015Z,100635.84
2022-12-25T22:42:32.755Z,100627.25
2022-12-25T22:45:00.402Z,100580.28
2022-12-25T22:47:27.847Z,100638.19
2022-12-25T22:49:55.618Z,100634.44
2022-12-25T22:52:23.041Z,100633.38
2022-12-25T22:54:51.252Z,100644.69
2022-12-25T22:57:18.873Z,100642.28
2022-12-25T22:59:46.554Z,100641.25
2022-12-25T23:02:14.108Z,100648.13
2022-12-25T23:04:41.767Z,100612.06
2022-12-25T23:07:14.621Z,100653.88
2022-12-25T23:09:45.613Z,100654.63
2022-12-25T23:12:33.337Z,100672.88
2022-12-25T23:15:00.983Z,100661.91
2022-12-25T23:17:50.953Z,100649.38
2022-12-25T23:20:36.863Z,100616.53
2022-12-25T23:23:22.956Z,100672.09
2022-12-25T23:26:09.368Z,100614.81
2022-12-25T23:28:58.114Z,100661.66
2022-12-25T23:31:36.301Z,100669.25
2022-12-25T23:34:05.657Z,100676.97
2022-12-25T23:36:33.647Z,100663.94
2022-12-25T23:39:08.655Z,100675.59
2022-12-25T23:41:39.113Z,100674.78
2022-12-25T23:44:07.100Z,100677.75
2022-12-25T23:46:34.779Z,100684.25
2022-12-25T23:49:02.668Z,100685.72
2022-12-25T23:51:30.026Z,100687.56
2022-12-25T23:53:57.392Z,100637.75
2022-12-25T23:56:24.917Z,100685.91
2022-12-25T23:58:52.248Z,100675.28
